Tubarao Do Mar — CSYX3 — position and weather

sailwx.info

Track history (hours):
 
Tides and Currents Weather Stations Pressure Air Temp Water Temp Dewpoint Dewpoint Depression Visibility Wind Speed Wind Dir Waves Ship Positions

Tubarao Do Mar

Last reported at 2017-Sep-21 18:07 UTC. Time now 2017-Sep-22 04:36 UTC.
Position N 38°42' W 009°08'.

Length 16 m.

Type: Passenger vessel. MMSI: 263673884.

Date/timePositionNaut miles runAvg speedWind from/ knotsBaromVisibWave heightAir tempDewpointWater temp
2017-Sep-21 18:07N 38°42' W 009°08'0 2.7
2017-Sep-21 17:59N 38°42' W 009°08'3 4.1
2017-Sep-21 17:21N 38°41' W 009°12'2 5.4
2017-Sep-21 16:59N 38°41' W 009°14'3 0.6
2017-Sep-21 12:31N 38°42' W 009°11'0 0.8
2017-Sep-21 12:27N 38°42' W 009°11'4 9.7
2017-Sep-21 12:00N 38°41' W 009°16'5 9.2
2017-Sep-21 11:27N 38°41' W 009°23'2 4.1
2017-Sep-21 11:00N 38°42' W 009°25'510.1
2017-Sep-21 10:30N 38°41' W 009°18'511.0
2017-Sep-21 10:00N 38°42' W 009°12'3 1.5
2017-Sep-21 07:59N 38°42' W 009°08'2 0.2
2017-Sep-20 19:14N 38°42' W 009°11'0 0.0
2017-Sep-20 07:53N 38°42' W 009°11'0 0.0
2017-Sep-19 13:01N 38°42' W 009°11'0 0.0
2017-Sep-19 11:58N 38°42' W 009°11'0 0.0
2017-Sep-18 19:17N 38°42' W 009°11'1 4.0
2017-Sep-18 19:00N 38°42' W 009°12'1 0.2
2017-Sep-18 13:07N 38°42' W 009°11'  
2017-Sep-15 21:01N 38°42' W 009°11'1 1.4
2017-Sep-15 20:27N 38°42' W 009°11'1 0.6
2017-Sep-15 19:08N 38°42' W 009°11'0 0.0
2017-Sep-15 16:53N 38°42' W 009°11'0 0.0
2017-Sep-15 13:58N 38°42' W 009°11'2 3.1
2017-Sep-15 13:20N 38°42' W 009°08'2 5.1
2017-Sep-15 12:59N 38°41' W 009°10'3 6.6
2017-Sep-15 12:27N 38°42' W 009°14'3 6.7
2017-Sep-15 12:00N 38°40' W 009°18'2 3.6
2017-Sep-15 11:30N 38°41' W 009°16'4 0.1
2017-Sep-13 11:58N 38°42' W 009°11'0 0.0
2017-Sep-13 11:13N 38°42' W 009°11'0 0.0
2017-Sep-12 15:56N 38°42' W 009°11'2 2.5
2017-Sep-12 14:58N 38°42' W 009°08'4 6.7
2017-Sep-12 14:22N 38°41' W 009°13'2 0.5
2017-Sep-12 10:59N 38°42' W 009°11'  
Track history (hours):
 
Tides and Currents Weather Stations Pressure Air Temp Water Temp Dewpoint Dewpoint Depression Visibility Wind Speed Wind Dir Waves Ship Positions

Tubarao Do Mar

Last reported at 2017-Sep-21 18:07 UTC. Time now 2017-Sep-22 04:36 UTC.
Position N 38°42' W 009°08'.

Length 16 m.

Type: Passenger vessel. MMSI: 263673884.

Date/timePositionNaut miles runAvg speedWind from/ knotsBaromVisibWave heightAir tempDewpointWater temp
2017-Sep-21 18:07N 38°42' W 009°08'0 2.7
2017-Sep-21 17:59N 38°42' W 009°08'3 4.1
2017-Sep-21 17:21N 38°41' W 009°12'2 5.4
2017-Sep-21 16:59N 38°41' W 009°14'3 0.6
2017-Sep-21 12:31N 38°42' W 009°11'0 0.8
2017-Sep-21 12:27N 38°42' W 009°11'4 9.7
2017-Sep-21 12:00N 38°41' W 009°16'5 9.2
2017-Sep-21 11:27N 38°41' W 009°23'2 4.1
2017-Sep-21 11:00N 38°42' W 009°25'510.1
2017-Sep-21 10:30N 38°41' W 009°18'511.0
2017-Sep-21 10:00N 38°42' W 009°12'3 1.5
2017-Sep-21 07:59N 38°42' W 009°08'2 0.2
2017-Sep-20 19:14N 38°42' W 009°11'0 0.0
2017-Sep-20 07:53N 38°42' W 009°11'0 0.0
2017-Sep-19 13:01N 38°42' W 009°11'0 0.0
2017-Sep-19 11:58N 38°42' W 009°11'0 0.0
2017-Sep-18 19:17N 38°42' W 009°11'1 4.0
2017-Sep-18 19:00N 38°42' W 009°12'1 0.2
2017-Sep-18 13:07N 38°42' W 009°11'  
2017-Sep-15 21:01N 38°42' W 009°11'1 1.4
2017-Sep-15 20:27N 38°42' W 009°11'1 0.6
2017-Sep-15 19:08N 38°42' W 009°11'0 0.0
2017-Sep-15 16:53N 38°42' W 009°11'0 0.0
2017-Sep-15 13:58N 38°42' W 009°11'2 3.1
2017-Sep-15 13:20N 38°42' W 009°08'2 5.1
2017-Sep-15 12:59N 38°41' W 009°10'3 6.6
2017-Sep-15 12:27N 38°42' W 009°14'3 6.7
2017-Sep-15 12:00N 38°40' W 009°18'2 3.6
2017-Sep-15 11:30N 38°41' W 009°16'4 0.1
2017-Sep-13 11:58N 38°42' W 009°11'0 0.0
2017-Sep-13 11:13N 38°42' W 009°11'0 0.0
2017-Sep-12 15:56N 38°42' W 009°11'2 2.5
2017-Sep-12 14:58N 38°42' W 009°08'4 6.7
2017-Sep-12 14:22N 38°41' W 009°13'2 0.5
2017-Sep-12 10:59N 38°42' W 009°11'  

Dump ship's entire track history